sensor_id;sensor_type;location;lat;lon;timestamp;temperature;humidity
20483;DHT22;10400;53.198;6.592;2024-02-21T00:02:09;10.20;99.90
20483;DHT22;10400;53.198;6.592;2024-02-21T00:04:34;10.20;99.90
20483;DHT22;10400;53.198;6.592;2024-02-21T00:07:01;10.20;99.90
20483;DHT22;10400;53.198;6.592;2024-02-21T00:09:27;10.30;99.90
20483;DHT22;10400;53.198;6.592;2024-02-21T00:11:53;10.30;99.90
20483;DHT22;10400;53.198;6.592;2024-02-21T00:14:18;10.20;99.90
20483;DHT22;10400;53.198;6.592;2024-02-21T00:16:44;10.20;99.90
20483;DHT22;10400;53.198;6.592;2024-02-21T00:19:10;10.20;99.90
20483;DHT22;10400;53.198;6.592;2024-02-21T00:21:35;10.10;99.90
20483;DHT22;10400;53.198;6.592;2024-02-21T00:24:01;10.10;99.90
20483;DHT22;10400;53.198;6.592;2024-02-21T00:26:27;10.10;99.90
20483;DHT22;10400;53.198;6.592;2024-02-21T00:28:53;10.10;99.90
20483;DHT22;10400;53.198;6.592;2024-02-21T00:31:18;10.00;99.90
20483;DHT22;10400;53.198;6.592;2024-02-21T00:33:44;10.00;99.90
20483;DHT22;10400;53.198;6.592;2024-02-21T00:36:09;10.00;99.90
20483;DHT22;10400;53.198;6.592;2024-02-21T00:38:35;9.90;99.90
20483;DHT22;10400;53.198;6.592;2024-02-21T00:41:01;9.90;99.90
20483;DHT22;10400;53.198;6.592;2024-02-21T00:43:26;9.90;99.90
20483;DHT22;10400;53.198;6.592;2024-02-21T00:45:52;9.90;99.90
20483;DHT22;10400;53.198;6.592;2024-02-21T00:48:17;9.80;99.90
20483;DHT22;10400;53.198;6.592;2024-02-21T00:50:43;9.80;99.90
20483;DHT22;10400;53.198;6.592;2024-02-21T00:53:09;9.80;99.90
20483;DHT22;10400;53.198;6.592;2024-02-21T00:55:35;9.90;99.90
20483;DHT22;10400;53.198;6.592;2024-02-21T00:58:01;9.80;99.90
20483;DHT22;10400;53.198;6.592;2024-02-21T01:00:26;9.80;99.90
20483;DHT22;10400;53.198;6.592;2024-02-21T01:02:52;9.70;99.90
20483;DHT22;10400;53.198;6.592;2024-02-21T01:05:18;9.70;99.90
20483;DHT22;10400;53.198;6.592;2024-02-21T01:07:44;9.80;99.90
20483;DHT22;10400;53.198;6.592;2024-02-21T01:10:10;9.80;99.90
20483;DHT22;10400;53.198;6.592;2024-02-21T01:12:36;9.80;99.90
20483;DHT22;10400;53.198;6.592;2024-02-21T01:15:02;9.80;99.90
20483;DHT22;10400;53.198;6.592;2024-02-21T01:17:28;9.80;99.90
20483;DHT22;10400;53.198;6.592;2024-02-21T01:19:53;9.80;99.90
20483;DHT22;10400;53.198;6.592;2024-02-21T01:22:19;9.80;99.90
20483;DHT22;10400;53.198;6.592;2024-02-21T01:24:45;9.80;99.90
20483;DHT22;10400;53.198;6.592;2024-02-21T01:27:10;9.80;99.90
20483;DHT22;10400;53.198;6.592;2024-02-21T01:29:36;9.80;99.90
20483;DHT22;10400;53.198;6.592;2024-02-21T01:32:02;9.80;99.90
20483;DHT22;10400;53.198;6.592;2024-02-21T01:34:27;9.80;99.90
20483;DHT22;10400;53.198;6.592;2024-02-21T01:36:53;9.80;99.90
20483;DHT22;10400;53.198;6.592;2024-02-21T01:39:18;9.70;99.90
20483;DHT22;10400;53.198;6.592;2024-02-21T01:41:44;9.70;99.90
20483;DHT22;10400;53.198;6.592;2024-02-21T01:44:10;9.70;99.90
20483;DHT22;10400;53.198;6.592;2024-02-21T01:46:35;9.70;99.90
20483;DHT22;10400;53.198;6.592;2024-02-21T01:49:02;9.60;99.90
20483;DHT22;10400;53.198;6.592;2024-02-21T01:51:28;9.60;99.90
20483;DHT22;10400;53.198;6.592;2024-02-21T01:53:55;9.60;99.90
20483;DHT22;10400;53.198;6.592;2024-02-21T01:56:22;9.70;99.90
20483;DHT22;10400;53.198;6.592;2024-02-21T01:58:48;9.60;99.90
20483;DHT22;10400;53.198;6.592;2024-02-21T02:01:14;9.70;99.90
20483;DHT22;10400;53.198;6.592;2024-02-21T02:03:40;9.60;99.90
20483;DHT22;10400;53.198;6.592;2024-02-21T02:06:06;9.60;99.90
20483;DHT22;10400;53.198;6.592;2024-02-21T02:08:34;9.60;99.90
20483;DHT22;10400;53.198;6.592;2024-02-21T02:11:00;9.60;99.90
20483;DHT22;10400;53.198;6.592;2024-02-21T02:13:26;9.60;99.90
20483;DHT22;10400;53.198;6.592;2024-02-21T02:15:52;9.60;99.90
20483;DHT22;10400;53.198;6.592;2024-02-21T02:18:19;9.60;99.90
20483;DHT22;10400;53.198;6.592;2024-02-21T02:20:45;9.60;99.90
20483;DHT22;10400;53.198;6.592;2024-02-21T02:23:17;9.60;99.90
20483;DHT22;10400;53.198;6.592;2024-02-21T02:25:42;9.50;99.90
20483;DHT22;10400;53.198;6.592;2024-02-21T02:28:09;9.50;99.90
20483;DHT22;10400;53.198;6.592;2024-02-21T02:30:38;9.50;99.90
20483;DHT22;10400;53.198;6.592;2024-02-21T02:33:04;9.50;99.90
20483;DHT22;10400;53.198;6.592;2024-02-21T02:35:30;9.50;99.90
20483;DHT22;10400;53.198;6.592;2024-02-21T02:37:56;9.60;99.90
20483;DHT22;10400;53.198;6.592;2024-02-21T02:40:22;9.60;99.90
20483;DHT22;10400;53.198;6.592;2024-02-21T02:42:48;9.50;99.90
20483;DHT22;10400;53.198;6.592;2024-02-21T02:45:15;9.50;99.90
20483;DHT22;10400;53.198;6.592;2024-02-21T02:47:41;9.50;99.90
20483;DHT22;10400;53.198;6.592;2024-02-21T02:50:07;9.50;99.90
20483;DHT22;10400;53.198;6.592;2024-02-21T02:52:33;9.50;99.90
20483;DHT22;10400;53.198;6.592;2024-02-21T02:54:59;9.50;99.90
20483;DHT22;10400;53.198;6.592;2024-02-21T02:57:25;9.50;99.90
20483;DHT22;10400;53.198;6.592;2024-02-21T02:59:51;9.50;99.90
20483;DHT22;10400;53.198;6.592;2024-02-21T03:02:17;9.50;99.90
20483;DHT22;10400;53.198;6.592;2024-02-21T03:04:43;9.50;99.90
20483;DHT22;10400;53.198;6.592;2024-02-21T03:07:09;9.50;99.90
20483;DHT22;10400;53.198;6.592;2024-02-21T03:09:40;9.50;99.90
20483;DHT22;10400;53.198;6.592;2024-02-21T03:12:06;9.50;99.90
20483;DHT22;10400;53.198;6.592;2024-02-21T03:14:32;9.50;99.90
20483;DHT22;10400;53.198;6.592;2024-02-21T03:16:58;9.50;99.90
20483;DHT22;10400;53.198;6.592;2024-02-21T03:19:24;9.50;99.90
20483;DHT22;10400;53.198;6.592;2024-02-21T03:21:51;9.50;99.90
20483;DHT22;10400;53.198;6.592;2024-02-21T03:24:17;9.50;99.90
20483;DHT22;10400;53.198;6.592;2024-02-21T03:26:42;9.60;99.90
20483;DHT22;10400;53.198;6.592;2024-02-21T03:29:08;9.60;99.90
20483;DHT22;10400;53.198;6.592;2024-02-21T03:31:34;9.60;99.90
20483;DHT22;10400;53.198;6.592;2024-02-21T03:34:00;9.60;99.90
20483;DHT22;10400;53.198;6.592;2024-02-21T03:36:26;9.50;99.90
20483;DHT22;10400;53.198;6.592;2024-02-21T03:38:52;9.50;99.90
20483;DHT22;10400;53.198;6.592;2024-02-21T03:41:17;9.60;99.90
20483;DHT22;10400;53.198;6.592;2024-02-21T03:43:43;9.60;99.90
20483;DHT22;10400;53.198;6.592;2024-02-21T03:46:09;9.60;99.90
20483;DHT22;10400;53.198;6.592;2024-02-21T03:48:35;9.60;99.90
20483;DHT22;10400;53.198;6.592;2024-02-21T03:51:01;9.60;99.90
20483;DHT22;10400;53.198;6.592;2024-02-21T03:53:26;9.60;99.90
20483;DHT22;10400;53.198;6.592;2024-02-21T03:55:52;9.60;99.90
20483;DHT22;10400;53.198;6.592;2024-02-21T03:58:18;9.60;99.90
20483;DHT22;10400;53.198;6.592;2024-02-21T04:00:44;9.60;99.90
20483;DHT22;10400;53.198;6.592;2024-02-21T04:03:10;9.60;99.90
20483;DHT22;10400;53.198;6.592;2024-02-21T04:05:35;9.60;99.90
20483;DHT22;10400;53.198;6.592;2024-02-21T04:08:06;9.60;99.90
20483;DHT22;10400;53.198;6.592;2024-02-21T04:10:32;9.60;99.90
20483;DHT22;10400;53.198;6.592;2024-02-21T04:12:57;9.60;99.90
20483;DHT22;10400;53.198;6.592;2024-02-21T04:15:23;9.60;99.90
20483;DHT22;10400;53.198;6.592;2024-02-21T04:17:48;9.60;99.90
20483;DHT22;10400;53.198;6.592;2024-02-21T04:20:15;9.60;99.90
20483;DHT22;10400;53.198;6.592;2024-02-21T04:22:43;9.60;99.90
20483;DHT22;10400;53.198;6.592;2024-02-21T04:25:10;9.60;99.90
20483;DHT22;10400;53.198;6.592;2024-02-21T04:27:37;9.60;99.90
20483;DHT22;10400;53.198;6.592;2024-02-21T04:30:03;9.60;99.90
20483;DHT22;10400;53.198;6.592;2024-02-21T04:32:29;9.60;99.90
20483;DHT22;10400;53.198;6.592;2024-02-21T04:34:55;9.60;99.90
20483;DHT22;10400;53.198;6.592;2024-02-21T04:37:20;9.60;99.90
20483;DHT22;10400;53.198;6.592;2024-02-21T04:39:47;9.50;99.90
20483;DHT22;10400;53.198;6.592;2024-02-21T04:42:13;9.50;99.90
20483;DHT22;10400;53.198;6.592;2024-02-21T04:44:39;9.50;99.90
20483;DHT22;10400;53.198;6.592;2024-02-21T04:47:05;9.50;99.90
20483;DHT22;10400;53.198;6.592;2024-02-21T04:49:30;9.50;99.90
20483;DHT22;10400;53.198;6.592;2024-02-21T04:51:56;9.50;99.90
20483;DHT22;10400;53.198;6.592;2024-02-21T04:54:22;9.50;99.90
20483;DHT22;10400;53.198;6.592;2024-02-21T04:56:47;9.60;99.90
20483;DHT22;10400;53.198;6.592;2024-02-21T04:59:13;9.50;99.90
20483;DHT22;10400;53.198;6.592;2024-02-21T05:01:39;9.50;99.90
20483;DHT22;10400;53.198;6.592;2024-02-21T05:04:04;9.50;99.90
20483;DHT22;10400;53.198;6.592;2024-02-21T05:06:30;9.60;99.90
20483;DHT22;10400;53.198;6.592;2024-02-21T05:08:55;9.60;99.90
20483;DHT22;10400;53.198;6.592;2024-02-21T05:11:23;9.50;99.90
20483;DHT22;10400;53.198;6.592;2024-02-21T05:13:50;9.60;99.90
20483;DHT22;10400;53.198;6.592;2024-02-21T05:16:16;9.50;99.90
20483;DHT22;10400;53.198;6.592;2024-02-21T05:18:41;9.60;99.90
20483;DHT22;10400;53.198;6.592;2024-02-21T05:21:08;9.60;99.90
20483;DHT22;10400;53.198;6.592;2024-02-21T05:23:34;9.60;99.90
20483;DHT22;10400;53.198;6.592;2024-02-21T05:25:59;9.60;99.90
20483;DHT22;10400;53.198;6.592;2024-02-21T05:28:25;9.60;99.90
20483;DHT22;10400;53.198;6.592;2024-02-21T05:30:50;9.60;99.90
20483;DHT22;10400;53.198;6.592;2024-02-21T05:33:16;9.60;99.90
20483;DHT22;10400;53.198;6.592;2024-02-21T05:35:47;9.60;99.90
20483;DHT22;10400;53.198;6.592;2024-02-21T05:38:14;9.60;99.90
20483;DHT22;10400;53.198;6.592;2024-02-21T05:40:40;9.60;99.90
20483;DHT22;10400;53.198;6.592;2024-02-21T05:43:07;9.60;99.90
20483;DHT22;10400;53.198;6.592;2024-02-21T05:45:33;9.60;99.90
20483;DHT22;10400;53.198;6.592;2024-02-21T05:47:59;9.60;99.90
20483;DHT22;10400;53.198;6.592;2024-02-21T05:50:25;9.60;99.90
20483;DHT22;10400;53.198;6.592;2024-02-21T05:52:52;9.60;99.90
20483;DHT22;10400;53.198;6.592;2024-02-21T05:55:18;9.60;99.90
20483;DHT22;10400;53.198;6.592;2024-02-21T05:57:44;9.60;99.90
20483;DHT22;10400;53.198;6.592;2024-02-21T06:00:10;9.60;99.90
20483;DHT22;10400;53.198;6.592;2024-02-21T06:02:35;9.70;99.90
20483;DHT22;10400;53.198;6.592;2024-02-21T06:05:01;9.60;99.90
20483;DHT22;10400;53.198;6.592;2024-02-21T06:07:27;9.60;99.90
20483;DHT22;10400;53.198;6.592;2024-02-21T06:09:52;9.70;99.90
20483;DHT22;10400;53.198;6.592;2024-02-21T06:12:18;9.60;99.90
20483;DHT22;10400;53.198;6.592;2024-02-21T06:14:44;9.60;99.90
20483;DHT22;10400;53.198;6.592;2024-02-21T06:17:10;9.70;99.90
20483;DHT22;10400;53.198;6.592;2024-02-21T06:19:35;9.60;99.90
20483;DHT22;10400;53.198;6.592;2024-02-21T06:22:01;9.60;99.90
20483;DHT22;10400;53.198;6.592;2024-02-21T06:24:27;9.60;99.90
20483;DHT22;10400;53.198;6.592;2024-02-21T06:26:52;9.60;99.90
20483;DHT22;10400;53.198;6.592;2024-02-21T06:29:18;9.60;99.90
20483;DHT22;10400;53.198;6.592;2024-02-21T06:31:44;9.60;99.90
20483;DHT22;10400;53.198;6.592;2024-02-21T06:34:09;9.60;99.90
20483;DHT22;10400;53.198;6.592;2024-02-21T06:36:35;9.60;99.90
20483;DHT22;10400;53.198;6.592;2024-02-21T06:39:00;9.60;99.90
20483;DHT22;10400;53.198;6.592;2024-02-21T06:41:26;9.60;99.90
20483;DHT22;10400;53.198;6.592;2024-02-21T06:43:52;9.60;99.90
20483;DHT22;10400;53.198;6.592;2024-02-21T06:46:25;9.70;99.90
20483;DHT22;10400;53.198;6.592;2024-02-21T06:48:50;9.60;99.90
20483;DHT22;10400;53.198;6.592;2024-02-21T06:51:16;9.70;99.90
20483;DHT22;10400;53.198;6.592;2024-02-21T06:53:42;9.70;99.90
20483;DHT22;10400;53.198;6.592;2024-02-21T06:56:09;9.60;99.90
20483;DHT22;10400;53.198;6.592;2024-02-21T06:58:35;9.60;99.90
20483;DHT22;10400;53.198;6.592;2024-02-21T07:01:01;9.60;99.90
20483;DHT22;10400;53.198;6.592;2024-02-21T07:03:27;9.80;99.90
20483;DHT22;10400;53.198;6.592;2024-02-21T07:05:53;9.70;99.90
20483;DHT22;10400;53.198;6.592;2024-02-21T07:08:18;9.70;99.90
20483;DHT22;10400;53.198;6.592;2024-02-21T07:10:44;9.70;99.90
20483;DHT22;10400;53.198;6.592;2024-02-21T07:13:09;9.70;99.90
20483;DHT22;10400;53.198;6.592;2024-02-21T07:15:35;9.70;99.90
20483;DHT22;10400;53.198;6.592;2024-02-21T07:18:02;9.70;99.90
20483;DHT22;10400;53.198;6.592;2024-02-21T07:20:28;9.60;99.90
20483;DHT22;10400;53.198;6.592;2024-02-21T07:22:54;9.60;99.90
20483;DHT22;10400;53.198;6.592;2024-02-21T07:25:19;9.70;99.90
20483;DHT22;10400;53.198;6.592;2024-02-21T07:27:45;9.70;99.90
20483;DHT22;10400;53.198;6.592;2024-02-21T07:30:11;9.70;99.90
20483;DHT22;10400;53.198;6.592;2024-02-21T07:32:37;9.60;99.90
20483;DHT22;10400;53.198;6.592;2024-02-21T07:35:03;9.60;99.90
20483;DHT22;10400;53.198;6.592;2024-02-21T07:37:28;9.60;99.90
20483;DHT22;10400;53.198;6.592;2024-02-21T07:39:54;9.60;99.90
20483;DHT22;10400;53.198;6.592;2024-02-21T07:42:20;9.60;99.90
20483;DHT22;10400;53.198;6.592;2024-02-21T07:44:45;9.60;99.90
20483;DHT22;10400;53.198;6.592;2024-02-21T07:47:11;9.70;99.90
20483;DHT22;10400;53.198;6.592;2024-02-21T07:49:44;9.70;99.90
20483;DHT22;10400;53.198;6.592;2024-02-21T07:52:11;9.70;99.90
20483;DHT22;10400;53.198;6.592;2024-02-21T07:54:37;9.70;99.90
20483;DHT22;10400;53.198;6.592;2024-02-21T07:57:02;9.70;99.90
20483;DHT22;10400;53.198;6.592;2024-02-21T07:59:29;9.70;99.90
20483;DHT22;10400;53.198;6.592;2024-02-21T08:01:58;9.70;99.90
20483;DHT22;10400;53.198;6.592;2024-02-21T08:04:25;9.80;99.90
20483;DHT22;10400;53.198;6.592;2024-02-21T08:06:54;9.70;99.90
20483;DHT22;10400;53.198;6.592;2024-02-21T08:09:26;9.80;99.90
20483;DHT22;10400;53.198;6.592;2024-02-21T08:11:53;9.80;99.90
20483;DHT22;10400;53.198;6.592;2024-02-21T08:14:19;9.80;99.90
20483;DHT22;10400;53.198;6.592;2024-02-21T08:16:45;9.70;99.90
20483;DHT22;10400;53.198;6.592;2024-02-21T08:19:10;9.70;99.90
20483;DHT22;10400;53.198;6.592;2024-02-21T08:21:36;9.70;99.90
20483;DHT22;10400;53.198;6.592;2024-02-21T08:24:02;9.70;99.90
20483;DHT22;10400;53.198;6.592;2024-02-21T08:26:28;9.80;99.90
20483;DHT22;10400;53.198;6.592;2024-02-21T08:28:56;9.70;99.90
20483;DHT22;10400;53.198;6.592;2024-02-21T08:31:24;9.70;99.90
20483;DHT22;10400;53.198;6.592;2024-02-21T08:33:59;9.70;99.90
20483;DHT22;10400;53.198;6.592;2024-02-21T08:36:32;9.70;99.90
20483;DHT22;10400;53.198;6.592;2024-02-21T08:38:58;9.80;99.90
20483;DHT22;10400;53.198;6.592;2024-02-21T08:41:24;9.80;99.90
20483;DHT22;10400;53.198;6.592;2024-02-21T08:43:53;9.80;99.90
20483;DHT22;10400;53.198;6.592;2024-02-21T08:46:22;9.80;99.90
20483;DHT22;10400;53.198;6.592;2024-02-21T08:48:50;9.90;99.90
20483;DHT22;10400;53.198;6.592;2024-02-21T08:51:17;9.90;99.90
20483;DHT22;10400;53.198;6.592;2024-02-21T08:53:43;9.90;99.90
20483;DHT22;10400;53.198;6.592;2024-02-21T08:56:09;9.80;99.90
20483;DHT22;10400;53.198;6.592;2024-02-21T08:58:36;9.80;99.90
20483;DHT22;10400;53.198;6.592;2024-02-21T09:01:05;9.90;99.90
20483;DHT22;10400;53.198;6.592;2024-02-21T09:03:32;9.90;99.90
20483;DHT22;10400;53.198;6.592;2024-02-21T09:05:58;9.80;99.90
20483;DHT22;10400;53.198;6.592;2024-02-21T09:08:24;9.80;99.90
20483;DHT22;10400;53.198;6.592;2024-02-21T09:10:50;9.90;99.90
20483;DHT22;10400;53.198;6.592;2024-02-21T09:13:16;9.90;99.90
20483;DHT22;10400;53.198;6.592;2024-02-21T09:15:42;9.90;99.90
20483;DHT22;10400;53.198;6.592;2024-02-21T09:18:08;9.90;99.90
20483;DHT22;10400;53.198;6.592;2024-02-21T09:20:34;9.90;99.90
20483;DHT22;10400;53.198;6.592;2024-02-21T09:22:59;9.90;99.90
20483;DHT22;10400;53.198;6.592;2024-02-21T09:25:25;9.90;99.90
20483;DHT22;10400;53.198;6.592;2024-02-21T09:27:51;9.90;99.90
20483;DHT22;10400;53.198;6.592;2024-02-21T09:30:17;9.90;99.90
20483;DHT22;10400;53.198;6.592;2024-02-21T09:32:44;9.90;99.90
20483;DHT22;10400;53.198;6.592;2024-02-21T09:35:10;10.00;99.90
20483;DHT22;10400;53.198;6.592;2024-02-21T09:37:35;10.00;99.90
20483;DHT22;10400;53.198;6.592;2024-02-21T09:40:01;10.00;99.90
20483;DHT22;10400;53.198;6.592;2024-02-21T09:42:40;9.90;99.90
20483;DHT22;10400;53.198;6.592;2024-02-21T09:45:23;10.00;99.90
20483;DHT22;10400;53.198;6.592;2024-02-21T09:50:34;10.00;99.90
20483;DHT22;10400;53.198;6.592;2024-02-21T09:53:02;10.00;99.90
20483;DHT22;10400;53.198;6.592;2024-02-21T09:55:31;9.90;99.90
20483;DHT22;10400;53.198;6.592;2024-02-21T09:58:03;10.00;99.90
20483;DHT22;10400;53.198;6.592;2024-02-21T10:00:30;10.00;99.90
20483;DHT22;10400;53.198;6.592;2024-02-21T10:02:55;10.00;99.90
20483;DHT22;10400;53.198;6.592;2024-02-21T10:05:21;9.90;99.90
20483;DHT22;10400;53.198;6.592;2024-02-21T10:07:48;10.00;99.90
20483;DHT22;10400;53.198;6.592;2024-02-21T10:10:15;10.00;99.90
20483;DHT22;10400;53.198;6.592;2024-02-21T10:12:49;10.00;99.90
20483;DHT22;10400;53.198;6.592;2024-02-21T10:15:20;10.00;99.90
20483;DHT22;10400;53.198;6.592;2024-02-21T10:17:47;10.00;99.90
20483;DHT22;10400;53.198;6.592;2024-02-21T10:20:13;10.00;99.90
20483;DHT22;10400;53.198;6.592;2024-02-21T10:22:40;10.00;99.90
20483;DHT22;10400;53.198;6.592;2024-02-21T10:25:10;10.00;99.90
20483;DHT22;10400;53.198;6.592;2024-02-21T10:27:39;10.00;99.90
20483;DHT22;10400;53.198;6.592;2024-02-21T10:30:07;10.10;99.90
20483;DHT22;10400;53.198;6.592;2024-02-21T10:32:33;10.10;99.90
20483;DHT22;10400;53.198;6.592;2024-02-21T10:35:03;10.10;99.90
20483;DHT22;10400;53.198;6.592;2024-02-21T10:37:30;10.10;99.90
20483;DHT22;10400;53.198;6.592;2024-02-21T10:39:56;10.20;99.90
20483;DHT22;10400;53.198;6.592;2024-02-21T10:42:22;10.20;99.90
20483;DHT22;10400;53.198;6.592;2024-02-21T10:44:51;10.20;99.90
20483;DHT22;10400;53.198;6.592;2024-02-21T10:47:17;10.20;99.90
20483;DHT22;10400;53.198;6.592;2024-02-21T10:49:49;10.20;99.90
20483;DHT22;10400;53.198;6.592;2024-02-21T10:52:48;10.20;99.90
20483;DHT22;10400;53.198;6.592;2024-02-21T10:55:29;10.30;99.90
20483;DHT22;10400;53.198;6.592;2024-02-21T10:57:57;10.30;99.90
20483;DHT22;10400;53.198;6.592;2024-02-21T11:00:24;10.30;99.90
20483;DHT22;10400;53.198;6.592;2024-02-21T11:02:59;10.40;99.90
20483;DHT22;10400;53.198;6.592;2024-02-21T11:05:25;10.40;99.90
20483;DHT22;10400;53.198;6.592;2024-02-21T11:07:53;10.60;99.90
20483;DHT22;10400;53.198;6.592;2024-02-21T11:10:26;10.50;99.90
20483;DHT22;10400;53.198;6.592;2024-02-21T11:13:08;10.60;99.90
20483;DHT22;10400;53.198;6.592;2024-02-21T11:15:34;10.60;99.90
20483;DHT22;10400;53.198;6.592;2024-02-21T11:18:00;10.70;99.90
20483;DHT22;10400;53.198;6.592;2024-02-21T11:20:33;10.80;99.90
20483;DHT22;10400;53.198;6.592;2024-02-21T11:22:59;10.70;99.90
20483;DHT22;10400;53.198;6.592;2024-02-21T11:25:26;10.90;99.90
20483;DHT22;10400;53.198;6.592;2024-02-21T11:28:02;10.80;99.90
20483;DHT22;10400;53.198;6.592;2024-02-21T11:30:31;10.80;99.90
20483;DHT22;10400;53.198;6.592;2024-02-21T11:33:01;10.80;99.90
20483;DHT22;10400;53.198;6.592;2024-02-21T11:35:34;10.80;99.90
20483;DHT22;10400;53.198;6.592;2024-02-21T11:38:13;10.70;99.90
20483;DHT22;10400;53.198;6.592;2024-02-21T11:40:44;10.70;99.90
20483;DHT22;10400;53.198;6.592;2024-02-21T11:43:10;10.70;99.90
20483;DHT22;10400;53.198;6.592;2024-02-21T11:45:36;10.70;99.90
20483;DHT22;10400;53.198;6.592;2024-02-21T11:48:02;10.80;99.90
20483;DHT22;10400;53.198;6.592;2024-02-21T11:50:29;10.80;99.90
20483;DHT22;10400;53.198;6.592;2024-02-21T11:52:56;10.80;99.90
20483;DHT22;10400;53.198;6.592;2024-02-21T11:55:22;10.80;99.90
20483;DHT22;10400;53.198;6.592;2024-02-21T11:57:48;10.70;99.90
20483;DHT22;10400;53.198;6.592;2024-02-21T12:00:18;10.70;99.90
20483;DHT22;10400;53.198;6.592;2024-02-21T12:02:47;10.70;99.90
20483;DHT22;10400;53.198;6.592;2024-02-21T12:05:14;10.70;99.90
20483;DHT22;10400;53.198;6.592;2024-02-21T12:07:40;10.70;99.90
20483;DHT22;10400;53.198;6.592;2024-02-21T12:10:15;10.70;99.90
20483;DHT22;10400;53.198;6.592;2024-02-21T12:12:41;10.70;99.90
20483;DHT22;10400;53.198;6.592;2024-02-21T12:15:07;10.70;99.90
20483;DHT22;10400;53.198;6.592;2024-02-21T12:17:34;10.70;99.90
20483;DHT22;10400;53.198;6.592;2024-02-21T12:20:01;10.70;99.90
20483;DHT22;10400;53.198;6.592;2024-02-21T12:22:29;10.70;99.90
20483;DHT22;10400;53.198;6.592;2024-02-21T12:24:58;10.70;99.90
20483;DHT22;10400;53.198;6.592;2024-02-21T12:27:23;10.70;99.90
20483;DHT22;10400;53.198;6.592;2024-02-21T12:29:50;10.60;99.90
20483;DHT22;10400;53.198;6.592;2024-02-21T12:32:16;10.70;99.90
20483;DHT22;10400;53.198;6.592;2024-02-21T12:34:41;10.60;99.90
20483;DHT22;10400;53.198;6.592;2024-02-21T12:37:07;10.70;99.90
20483;DHT22;10400;53.198;6.592;2024-02-21T12:39:33;10.70;99.90
20483;DHT22;10400;53.198;6.592;2024-02-21T12:41:58;10.70;99.90
20483;DHT22;10400;53.198;6.592;2024-02-21T12:44:24;10.80;99.90
20483;DHT22;10400;53.198;6.592;2024-02-21T12:46:50;10.80;99.90
20483;DHT22;10400;53.198;6.592;2024-02-21T12:49:19;10.90;99.90
20483;DHT22;10400;53.198;6.592;2024-02-21T12:51:44;10.90;99.90
20483;DHT22;10400;53.198;6.592;2024-02-21T12:54:12;10.80;99.90
20483;DHT22;10400;53.198;6.592;2024-02-21T12:56:38;10.80;99.90
20483;DHT22;10400;53.198;6.592;2024-02-21T12:59:05;10.80;99.90
20483;DHT22;10400;53.198;6.592;2024-02-21T13:01:30;10.80;99.90
20483;DHT22;10400;53.198;6.592;2024-02-21T13:03:56;10.90;99.90
20483;DHT22;10400;53.198;6.592;2024-02-21T13:06:23;10.90;99.90
20483;DHT22;10400;53.198;6.592;2024-02-21T13:08:50;10.90;99.90
20483;DHT22;10400;53.198;6.592;2024-02-21T13:11:16;10.80;99.90
20483;DHT22;10400;53.198;6.592;2024-02-21T13:13:42;10.90;99.90
20483;DHT22;10400;53.198;6.592;2024-02-21T13:16:07;10.80;99.90
20483;DHT22;10400;53.198;6.592;2024-02-21T13:18:35;10.90;99.90
20483;DHT22;10400;53.198;6.592;2024-02-21T13:21:04;11.00;99.90
20483;DHT22;10400;53.198;6.592;2024-02-21T13:23:29;11.00;99.90
20483;DHT22;10400;53.198;6.592;2024-02-21T13:25:55;10.90;99.90
20483;DHT22;10400;53.198;6.592;2024-02-21T13:28:21;11.00;99.90
20483;DHT22;10400;53.198;6.592;2024-02-21T13:30:46;11.00;99.90
20483;DHT22;10400;53.198;6.592;2024-02-21T13:33:12;11.00;99.90
20483;DHT22;10400;53.198;6.592;2024-02-21T13:35:38;11.10;99.90
20483;DHT22;10400;53.198;6.592;2024-02-21T13:38:04;11.10;99.90
20483;DHT22;10400;53.198;6.592;2024-02-21T13:40:30;11.10;99.90
20483;DHT22;10400;53.198;6.592;2024-02-21T13:42:56;11.10;99.90
20483;DHT22;10400;53.198;6.592;2024-02-21T13:45:21;11.10;99.90
20483;DHT22;10400;53.198;6.592;2024-02-21T13:47:47;11.10;99.90
20483;DHT22;10400;53.198;6.592;2024-02-21T13:50:13;11.10;99.90
20483;DHT22;10400;53.198;6.592;2024-02-21T13:52:42;11.00;99.90
20483;DHT22;10400;53.198;6.592;2024-02-21T13:55:08;11.10;99.90
20483;DHT22;10400;53.198;6.592;2024-02-21T13:57:35;11.10;99.90
20483;DHT22;10400;53.198;6.592;2024-02-21T14:00:02;11.20;99.90
20483;DHT22;10400;53.198;6.592;2024-02-21T14:02:28;11.10;99.90
20483;DHT22;10400;53.198;6.592;2024-02-21T14:04:54;11.00;99.90
20483;DHT22;10400;53.198;6.592;2024-02-21T14:07:20;11.00;99.90
20483;DHT22;10400;53.198;6.592;2024-02-21T14:09:46;11.00;99.90
20483;DHT22;10400;53.198;6.592;2024-02-21T14:12:11;10.90;99.90
20483;DHT22;10400;53.198;6.592;2024-02-21T14:14:37;10.80;99.90
20483;DHT22;10400;53.198;6.592;2024-02-21T14:17:03;10.80;99.90
20483;DHT22;10400;53.198;6.592;2024-02-21T14:19:30;10.80;99.90
20483;DHT22;10400;53.198;6.592;2024-02-21T14:21:55;10.80;99.90
20483;DHT22;10400;53.198;6.592;2024-02-21T14:24:22;10.80;99.90
20483;DHT22;10400;53.198;6.592;2024-02-21T14:26:48;10.80;99.90
20483;DHT22;10400;53.198;6.592;2024-02-21T14:29:14;10.80;99.90
20483;DHT22;10400;53.198;6.592;2024-02-21T14:31:40;10.70;99.90
20483;DHT22;10400;53.198;6.592;2024-02-21T14:34:05;10.70;99.90
20483;DHT22;10400;53.198;6.592;2024-02-21T14:36:33;10.60;99.90
20483;DHT22;10400;53.198;6.592;2024-02-21T14:38:59;10.60;99.90
20483;DHT22;10400;53.198;6.592;2024-02-21T14:41:24;10.60;99.90
20483;DHT22;10400;53.198;6.592;2024-02-21T14:43:50;10.60;99.90
20483;DHT22;10400;53.198;6.592;2024-02-21T14:46:17;10.60;99.90
20483;DHT22;10400;53.198;6.592;2024-02-21T14:48:42;10.60;99.90
20483;DHT22;10400;53.198;6.592;2024-02-21T14:51:08;10.50;99.90
20483;DHT22;10400;53.198;6.592;2024-02-21T14:53:34;10.50;99.90
20483;DHT22;10400;53.198;6.592;2024-02-21T14:55:59;10.50;99.90
20483;DHT22;10400;53.198;6.592;2024-02-21T14:58:25;10.60;99.90
20483;DHT22;10400;53.198;6.592;2024-02-21T15:00:51;10.50;99.90
20483;DHT22;10400;53.198;6.592;2024-02-21T15:03:17;10.50;99.90
20483;DHT22;10400;53.198;6.592;2024-02-21T15:05:46;10.50;99.90
20483;DHT22;10400;53.198;6.592;2024-02-21T15:08:12;10.50;99.90
20483;DHT22;10400;53.198;6.592;2024-02-21T15:10:42;10.50;99.90
20483;DHT22;10400;53.198;6.592;2024-02-21T15:13:07;10.40;99.90
20483;DHT22;10400;53.198;6.592;2024-02-21T15:15:33;10.40;99.90
20483;DHT22;10400;53.198;6.592;2024-02-21T15:17:59;10.40;99.90
20483;DHT22;10400;53.198;6.592;2024-02-21T15:20:24;10.40;99.90
20483;DHT22;10400;53.198;6.592;2024-02-21T15:22:50;10.40;99.90
20483;DHT22;10400;53.198;6.592;2024-02-21T15:25:16;10.40;99.90
20483;DHT22;10400;53.198;6.592;2024-02-21T15:27:44;10.40;99.90
20483;DHT22;10400;53.198;6.592;2024-02-21T15:30:10;10.40;99.90
20483;DHT22;10400;53.198;6.592;2024-02-21T15:32:37;10.40;99.90
20483;DHT22;10400;53.198;6.592;2024-02-21T15:35:04;10.40;99.90
20483;DHT22;10400;53.198;6.592;2024-02-21T15:37:31;10.40;99.90
20483;DHT22;10400;53.198;6.592;2024-02-21T15:39:57;10.30;99.90